Tiempo atmosférico en la estación meteorológica de Benavente, Zamora (715 m.)



Fecha
DESCASC
Temp. máxima en grados centígrados (hora)
DESCASC
Temp. mínima en grados centígrados (hora)
DESCASC
Temp. media en grados centígrados
DESCASC
Racha de viento máxima en m/sg (hora)
DESCASC
Velocidad máxima media en intervalos de 10 minutos(hora)
DESCASC
Precipitaciones diarias en mm
DESCASC
Precipitaciones de 00:00 a 06:00 en mm
DESCASC
Precipitaciones de 06:00 a 12:00 en mm
DESCASC
Precipitaciones de 12:00 a 18:00 en mm
DESCASC
Precipitaciones de 18:00 a 24:00 en mm
DESCASC
23-06-2019 25.8 (13:40) 17.1 (07:50) 21.4 13.89 (18:30) 5.28 (13:40) 0 0 0 0 0
22-06-2019 30 (18:00) 11.5 (06:50) 20.8 10.28 (18:20) 4.72 (18:20) 0 0 0 0 0
21-06-2019 23.5 (18:30) 11.2 (06:50) 17.3 7.22 (16:30) 3.06 (13:20) 0 0 0 0 0
20-06-2019 25 (18:00) 11.7 (00:00) 18.3 11.39 (21:40) 6.67 (22:10) 11.6 0 0 0 11.6
19-06-2019 23.7 (17:30) 14.9 (00:00) 19.3 12.5 (17:40) 5.83 (15:00) 0 0 0 0 0
18-06-2019 25.5 (14:00) 10.9 (00:00) 18.2 15 (16:10) 8.33 (17:10) 0 0 0 0 0
17-06-2019 28.3 (15:20) 10.6 (00:00) 19.4 14.72 (22:00) 5.28 (15:00) 0 0 0 0 0
16-06-2019 27.7 (18:00) 9.3 (00:00) 18.5 7.5 (18:50) 3.33 (14:30) 0 0 0 0 0
15-06-2019 24.3 (18:50) 8.6 (00:00) 16.4 7.5 (14:10) 3.06 (17:40) 0 0 0 0 0
14-06-2019 22.1 (17:10) 7.8 (00:00) 15 12.5 (17:30) 5.83 (20:30) 0 0 0 0 0
13-06-2019 22.9 (17:10) 6.6 (00:00) 14.7 11.11 (18:30) 5.28 (15:40) 0 0 0 0 0
12-06-2019 21.6 (19:10) 4.6 (00:00) 13.1 8.61 (09:40) 4.17 (09:50) 0 0 0 0 0
11-06-2019 19.4 (19:10) 9.1 (00:00) 14.3 13.61 (15:30) 5.83 (12:50) 0 0 0 0 0
10-06-2019 22.9 (18:30) 6.7 (00:00) 14.8 11.67 (23:00) 5.56 (23:20) 0 0 0 0 0
09-06-2019 23.8 (15:40) 8.9 (00:00) 16.3 12.22 (15:10) 5 (20:30) 0.4 0 0 0.4 0
08-06-2019 23.8 (17:50) 5.3 (00:00) 14.5 7.5 (14:00) 3.89 (18:20) 0 0 0 0 0
07-06-2019 18.8 (18:40) 7 (00:00) 12.9 10.83 (16:10) 5 (01:50) 0 0 0 0 0
06-06-2019 20.3 (16:10) 5.1 (00:00) 12.7 19.17 (18:10) 8.89 (18:20) 2.4 0 0 0 2.4
05-06-2019 18.6 (15:40) 8.7 (00:00) 13.7 11.11 (09:30) 5.56 (15:50) 0 0 0 0 0
04-06-2019 21.8 (14:30) 12.3 (00:00) 17 13.33 (14:40) 5.28 (15:00) 0 0 0 0 0
03-06-2019 28.8 (17:50) 16.7 (00:00) 22.8 13.61 (16:30) 5.83 (16:40) 0 0 0 0 0
02-06-2019 30.9 (16:30) 15.1 (00:00) 23 10.28 (14:40) 4.44 (15:00) 0 0 0 0 0
01-06-2019 33.7 (17:20) 13.2 (00:00) 23.5 9.44 (16:10) 3.89 (17:20) 0 0 0 0 0
31-05-2019 31.2 (18:40) 13.5 (00:00) 22.4 7.22 (17:20) 3.33 (17:20) 0 0 0 0 0
30-05-2019 30 (18:30) 9.6 (00:00) 19.8 6.67 (17:00) 2.78 (20:30) 0 0 0 0 0
29-05-2019 25.3 (19:20) 6.8 (00:00) 16 10 (17:20) 3.61 (21:30) 0 0 0 0 0
28-05-2019 23.8 (16:40) 7.5 (00:00) 15.6 13.33 (19:00) 8.06 (19:20) 0 0 0 0 0
27-05-2019 26.5 (16:20) 9.8 (00:00) 18.2 12.22 (21:20) 6.39 (20:30) -- 0 -- 0 0
26-05-2019 28.8 (18:40) 7.2 (00:00) 18 9.72 (17:10) 5 (20:20) 0 0 0 0 0

Gráficas

Temp. máximas Temp. mínimas Temp. medias Precipitaciones Rachas de viento máximas Velocidades máximas media en intervalos de 10 minutos

Datos horarios

Fecha y hora oficial Temperatura (ºC) Velocidad del viento (km/h) Dirección del viento Racha (km/h) Dirección de racha Precipitación (mm) Presión (hPa) Tendencia (hPa) Humedad (%)
2019-06-24 23:00:00 13.9 5 Sudoeste 16 Oeste 0 934.8 0.2 90
2019-06-24 22:00:00 14.3 5 Sur 18 Sur 0.8 934.6 0.2 90
2019-06-24 21:00:00 14.5 5 Sur 13 Sur 0.8 934.1 0 91
2019-06-24 20:00:00 14.6 9 Sur 21 Sur 1.8 934.6 1 90
2019-06-24 19:00:00 14.6 7 Oeste 16 Sudoeste 5.2 934.4 0.8 90
2019-06-24 18:00:00 14.9 6 Oeste 16 Noroeste 1.2 934.1 0.6 89
2019-06-24 17:00:00 15.2 2 Oeste 9 Noroeste 2 933.6 0.5 89
2019-06-24 16:00:00 15.3 5 Noroeste 17 Noroeste 0.4 933.6 0.2 85
2019-06-24 15:00:00 16.5 7 Noroeste 17 Noroeste 0 933.5 0.6 71
2019-06-24 14:00:00 17 4 Noroeste 14 Oeste 0 933.1 0.2 64
2019-06-24 13:00:00 16.2 5 Oeste 12 Noroeste 0 933.4 0.5 67
2019-06-24 12:00:00 15.8 6 Noroeste 25 Oeste 0 932.9 0.9 69
2019-06-24 11:00:00 16.5 6 Oeste 25 Noroeste 0.2 932.9 1.3 74
2019-06-24 10:00:00 16.6 12 Oeste 27 Oeste 0.2 932.9 1.4 79
2019-06-24 09:00:00 17.6 6 Noroeste 14 Noroeste 0 932 0.3 86
2019-06-24 08:00:00 17.6 2 Norte 8 Sudeste 0 931.6 0 83
2019-06-24 07:00:00 17.9 2 Sur 10 Oeste 0 931.5 -0.2 79
2019-06-24 06:00:00 18 4 Oeste 14 Oeste 0 931.7 -0.3 78
2019-06-24 05:00:00 18.3 4 Oeste 9 Sudoeste 0 931.6 -0.6 77
2019-06-24 04:00:00 17.9 3 Oeste 13 Sur 0 931.7 -0.5 82
2019-06-24 03:00:00 17.8 4 Sudoeste 11 Sudeste 0 932 0 80
2019-06-24 02:00:00 18.6 2 Oeste 8 Oeste 0 932.2 0.3 75
2019-06-24 01:00:00 18.8 4 Oeste 6 Nordeste 0 932.2 1 74
2019-06-24 00:00:00 19.2 4 Noroeste 23 Oeste 0 932 0.9 72
2019-06-23 23:00:00 19.5 6 Noroeste 26 Oeste 0 931.9 1.2 73
2019-06-23 22:00:00 20.2 11 Oeste 24 Oeste 0 931.2 0.4 69
2019-06-23 21:00:00 21.5 12 Oeste 24 Noroeste 0 931.1 0 62
2019-06-23 20:00:00 24.1 10 Sudoeste 29 Sur 0 930.7 -0.6 35
2019-06-23 19:00:00 24.7 13 Sur 50 Este 0 930.8 -0.6 31
2019-06-23 18:00:00 24.7 15 Sur 30 Sur 0 931.1 -0.6 32
2019-06-23 17:00:00 23.7 17 Sur 32 Sudoeste 0 931.3 -0.2 34
2019-06-23 16:00:00 23.2 16 Sur 38 Sur 0 931.4 0 35
2019-06-23 15:00:00 22.4 11 Sur 37 Sur 0 931.7 0.2 44
2019-06-23 14:00:00 24.9 15 Sur 39 Sudoeste 0 931.5 -0.1 30
2019-06-23 13:00:00 25 13 Sur 43 Sur 0 931.4 -0.1 27
2019-06-23 12:00:00 23.1 16 Sur 31 Sur 0 931.5 0.4 29
2019-06-23 11:00:00 21.2 9 Sur 16 Sur 0 931.6 0.6 38
2019-06-23 10:00:00 19.5 8 Sur 15 Sur 0 931.5 0.2 40
2019-06-23 09:00:00 18.1 7 Sur 13 Sur 0 931.1 -0.3 47
2019-06-23 08:00:00 17.1 5 Sur 9 Sur 0 931 -0.2 53
2019-06-23 07:00:00 17.3 2 Sur 11 Sudoeste 0 931.3 0.6 45
2019-06-23 06:00:00 18 4 Sudoeste 21 Sudoeste 0 931.4 1.1 41
2019-06-23 05:00:00 18.6 12 Sudoeste 22 Sudoeste 0 931.2 0.8 40
2019-06-23 04:00:00 19.6 6 Oeste 15 Oeste 0 930.7 0 39
2019-06-23 03:00:00 20.1 6 Oeste 13 Oeste 0 930.3 -0.7 39
2019-06-23 02:00:00 20.4 4 Sudoeste 13 Oeste 0 930.4 -0.4 45
2019-06-23 01:00:00 21.6 8 Oeste 17 Oeste 0 930.7 0.5 39
2019-06-23 00:00:00 22.6 8 Oeste 18 Oeste 0 931 0.7 36
2019-06-22 23:00:00 24.3 9 Oeste 25 Oeste 0 930.8 1 25
2019-06-22 22:00:00 25.4 6 Sudoeste 23 Sudoeste 0 930.2 0.3 17
2019-06-22 21:00:00 26.4 7 Sur 24 Sudoeste 0 930.3 0.2 26
2019-06-22 20:00:00 27.5 10 Sudoeste 25 Sudoeste 0 929.8 -0.9 21
2019-06-22 19:00:00 28.6 11 Sudoeste 37 Sur 0 929.9 -1.5 19
2019-06-22 18:00:00 29.8 15 Sudoeste 33 Sudoeste 0 930.1 -2.1 16
2019-06-22 17:00:00 29.1 10 Sur 23 Sur 0 930.7 -2.4 23
2019-06-22 16:00:00 27.8 9 Sur 25 Sudoeste 0 931.4 -2.3 25
2019-06-22 15:00:00 26.8 8 Sur 25 Sudoeste 0 932.2 -2 27
2019-06-22 14:00:00 24.4 6 Sudoeste 20 Este 0 933.1 -1.6 33
2019-06-22 13:00:00 21.9 8 Este 18 Este 0 933.7 -1.6 43
2019-06-22 12:00:00 19.9 5 Nordeste 15 Nordeste 0 934.2 -1.2 51
2019-06-22 11:00:00 17.3 5 Norte 14 Este 0 934.7 -0.8 61
2019-06-22 10:00:00 15.2 6 Norte 19 Nordeste 0 935.3 -0.1 68
2019-06-22 09:00:00 13.9 10 Nordeste 19 Nordeste 0 935.4 0.1 74
2019-06-22 08:00:00 13.1 8 Norte 18 Norte 0 935.5 -0.2 79
2019-06-22 07:00:00 11.5 6 Norte 14 Norte 0 935.4 -0.2 85
2019-06-22 06:00:00 11.9 6 Norte 13 Norte 0 935.3 -0.2 81
2019-06-22 05:00:00 12.2 5 Norte 11 Noroeste 0 935.7 -0.2 80
2019-06-22 04:00:00 12.8 3 Norte 18 Nordeste 0 935.6 -0.5 78
2019-06-22 03:00:00 13.6 7 Nordeste 16 Nordeste 0 935.5 -0.3 75
2019-06-22 02:00:00 14.5 5 Nordeste 18 Este 0 935.9 0.4 72
2019-06-22 01:00:00 15.7 10 Este 24 Este 0 936.1 1.1 68
2019-06-22 00:00:00 16.7 9 Este 19 Este 0 935.8 0.8 64
2019-06-21 23:00:00 18 5 Este 12 Este 0 935.5 0.9 57
2019-06-21 22:00:00 20 5 Este 13 Este 0 935 0.4 46
2019-06-21 21:00:00 22.3 5 Este 17 Este 0 935 -0.1 35
2019-06-21 20:00:00 22.8 8 Este 19 Sudeste 0 934.6 -0.8 31
2019-06-21 19:00:00 23.1 6 Sudeste 18 Nordeste 0 934.6 -1.2 31
2019-06-21 18:00:00 22.6 8 Este 20 Este 0 935.1 -1 30
2019-06-21 17:00:00 22.7 7 Sudeste 26 Sudeste 0 935.4 -1.2 34
2019-06-21 16:00:00 22.3 7 Este 18 Nordeste 0 935.8 -0.8 37
2019-06-21 15:00:00 20.2 8 Este 22 Este 0 936.1 -0.5 47
2019-06-21 14:00:00 20.3 6 Este 22 Este 0 936.6 0 50
2019-06-21 13:00:00 19.3 8 Este 21 Sudeste 0 936.6 0.1 53
2019-06-21 12:00:00 18 8 Este 18 Este 0 936.6 0.4 60
2019-06-21 11:00:00 16.4 8 Nordeste 18 Nordeste 0 936.6 0.8 67
2019-06-21 10:00:00 15.4 8 Norte 14 Noroeste 0 936.5 1.3 71
2019-06-21 09:00:00 14.3 4 Norte 12 Norte 0 936.2 1.3 81
2019-06-21 08:00:00 13.1 5 Norte 11 Norte 0 935.8 0.8 86
2019-06-21 07:00:00 11.4 3 Norte 7 Norte 0 935.2 -0.1 91
2019-06-21 06:00:00 11.8 5 Norte 14 Noroeste 0 934.9 -0.5 91
2019-06-21 05:00:00 12.6 7 Noroeste 15 Noroeste 0 935 -0.2 90
2019-06-21 04:00:00 13 4 Noroeste 9 Noroeste 0 935.3 0.1 90
2019-06-21 03:00:00 13.1 4 Noroeste 15 Noroeste 0 935.4 0.1 90
2019-06-21 02:00:00 13.1 6 Noroeste 14 Norte 0 935.2 0.2 91
2019-06-21 01:00:00 13.3 5 Norte 12 Este 0 935.2 1.3 90
2019-06-21 00:00:00 13.1 6 Este 28 Este 0 935.3 1.5 89
2019-06-20 23:00:00 13.4 14 Este 37 Nordeste 1.2 935 3.5 88
2019-06-20 22:00:00 13.4 21 Nordeste 41 Nordeste 3.6 933.9 3.1 89
2019-06-20 21:00:00 14.9 8 Este 41 Norte 6.8 933.8 3.2 85
2019-06-20 20:00:00 20.2 21 Norte 40 Noroeste 0 931.5 0.3 52
2019-06-20 19:00:00 24.2 14 Noroeste 34 Noroeste 0 930.8 -1 34
2019-06-20 18:00:00 25 12 Noroeste 24 Noroeste 0 930.6 -2 32
2019-06-20 17:00:00 23.8 9 Oeste 24 Sudoeste 0 931.2 -2.1 35
2019-06-20 16:00:00 24 7 Sudoeste 21 Sudeste 0 931.8 -1.6 34
2019-06-20 15:00:00 23.1 9 Oeste 18 Sudoeste 0 932.6 -1.2 39
2019-06-20 14:00:00 22 3 Sudeste 13 Este 0 933.3 -0.4 43
2019-06-20 13:00:00 21 5 Este 14 Este 0 933.4 -0.4 48
2019-06-20 12:00:00 19.7 6 Sudeste 17 Sudeste 0 933.8 -0.4 54
2019-06-20 11:00:00 18.1 6 Nordeste 15 Nordeste 0 933.7 -0.2 60
2019-06-20 10:00:00 16.3 8 Nordeste 20 Este 0 933.8 -0.2 67
2019-06-20 09:00:00 14.8 6 Nordeste 13 Norte 0 934.2 0.3 73
2019-06-20 08:00:00 13.2 7 Norte 17 Nordeste 0 933.9 0 77
2019-06-20 07:00:00 11.8 8 Norte 11 Norte 0 934 0 82
2019-06-20 06:00:00 12.4 4 Nordeste 15 Norte 0 933.9 -0.2 78
2019-06-20 05:00:00 13.5 8 Norte 14 Norte 0 933.9 -0.3 74
2019-06-20 04:00:00 14.1 5 Norte 14 Norte 0 934 -0.1 73
2019-06-20 03:00:00 13 5 Nordeste 13 Norte 0 934.1 0.1 75
2019-06-20 02:00:00 14.2 5 Norte 16 Noroeste 0 934.2 0.6 70
2019-06-20 01:00:00 15.7 9 Noroeste 16 Noroeste 0 934.1 1.1 64
2019-06-20 00:00:00 16.7 7 Noroeste 13 Noroeste 0 934 1.2 58
2019-06-19 23:00:00 18.6 6 Oeste 18 Oeste 0 933.6 1 49
2019-06-19 22:00:00 20.1 6 Oeste 28 Oeste 0 933 0.6 45
2019-06-19 21:00:00 21.9 13 Oeste 32 Oeste 0 932.8 0.3 38
2019-06-19 20:00:00 22.5 12 Sudoeste 31 Oeste 0 932.6 0 39
2019-06-19 19:00:00 23 15 Oeste 36 Sudoeste 0 932.4 -0.4 39
2019-06-19 18:00:00 22.7 18 Sudoeste 45 Sudoeste 0 932.5 -0.8 40
2019-06-19 17:00:00 22.7 12 Oeste 38 Sudoeste 0 932.6 -0.4 42
2019-06-19 16:00:00 23 14 Oeste 40 Sudoeste 0 932.8 -0.2 40
2019-06-19 15:00:00 21.5 21 Sudoeste 42 Sudoeste 0 933.3 0.3 50
2019-06-19 14:00:00 21.6 12 Oeste 28 Sudoeste 0 933 0.1 42
2019-06-19 13:00:00 20.6 15 Sudoeste 31 Oeste 0 933 -0.1 48
2019-06-19 12:00:00 20.3 16 Sudoeste 33 Sudoeste 0 933 0.3 48
2019-06-19 11:00:00 18.7 15 Sudoeste 33 Sudoeste 0 932.9 0.6 56
2019-06-19 10:00:00 17 10 Sudoeste 20 Sudoeste 0 933.1 1 68
2019-06-19 09:00:00 16.1 9 Sur 17 Sudoeste 0 932.7 0.7 77
2019-06-19 08:00:00 15.3 7 Sur 13 Sur 0 932.3 0.3 78
2019-06-19 07:00:00 14.9 9 Sudoeste 21 Sudoeste 0 932.1 0.3 79
2019-06-19 06:00:00 15.3 9 Sudoeste 23 Sudoeste 0 932 0.2 78
2019-06-19 05:00:00 15.6 11 Sudoeste 23 Sudoeste 0 932 0 77
2019-06-19 04:00:00 15.7 10 Sudoeste 29 Sudoeste 0 931.8 -0.5 75
2019-06-19 03:00:00 15.7 12 Sudoeste 23 Sudoeste 0 931.8 -0.4 76
2019-06-19 02:00:00 16.2 8 Sudoeste 28 Sudoeste 0 932 0 75
2019-06-19 01:00:00 17.1 8 Oeste 24 Oeste 0 932.3 0.7 71
2019-06-19 00:00:00 17.6 11 Sudoeste 39 Sudoeste 0 932.2 0.5 67
2019-06-18 23:00:00 18.1 11 Oeste 31 Sudoeste 0 932 0.6 63
2019-06-18 22:00:00 18.7 14 Sudoeste 32 Sudoeste 0 931.6 1 60
2019-06-18 21:00:00 19.3 14 Sudoeste 37 Sudoeste 0 931.7 1.3 58
2019-06-18 20:00:00 20.5 18 Sudoeste 48 Sudoeste 0 931.4 0.7 52
2019-06-18 19:00:00 22.7 19 Sudoeste 52 Sudoeste 0 930.6 0 38
2019-06-18 18:00:00 23.8 22 Sur 53 Sudoeste 0 930.4 -0.2 34
2019-06-18 17:00:00 23.3 25 Sudoeste 54 Sudoeste 0 930.7 0.4 39
2019-06-18 16:00:00 23.2 24 Sudoeste 46 Sudoeste 0 930.6 0.1 41
2019-06-18 15:00:00 23.8 19 Oeste 49 Sudoeste 0 930.6 0 37
2019-06-18 14:00:00 25.4 21 Sudoeste 53 Sur 0 930.3 -0.5 26
2019-06-18 13:00:00 24.3 20 Sur 45 Sur 0 930.5 -0.5 25
2019-06-18 12:00:00 22.8 18 Sudoeste 35 Sudoeste 0 930.6 -0.4 30
2019-06-18 11:00:00 21.8 14 Sudoeste 28 Sur 0 930.8 0 25
2019-06-18 10:00:00 19.8 9 Sudoeste 22 Sur 0 931 0.4 24
2019-06-18 09:00:00 16.2 3 Sudeste 9 Sudeste 0 931 0.6 50
2019-06-18 08:00:00 12.7 2 Nordeste 4 Sur 0 930.8 0.5 65
2019-06-18 07:00:00 11.1 3 Sur 5 Nordeste 0 930.6 -0.1 65
2019-06-18 06:00:00 11.7 0 Calma 5 Este 0 930.4 -0.6 62
2019-06-18 05:00:00 13.2 3 Norte 6 Oeste 0 930.3 -1.1 51
2019-06-18 04:00:00 15.1 3 Oeste 8 Oeste 0 930.7 -1.4 44
2019-06-18 03:00:00 16.5 3 Noroeste 8 Nordeste 0 931 -2.2 39
2019-06-18 02:00:00 17.8 4 Norte 9 Nordeste 0 931.4 -2 36
2019-06-18 01:00:00 18.9 3 Norte 19 Sudoeste 0 932.1 -0.8 34
2019-06-18 00:00:00 20.9 11 Sudoeste 28 Sudoeste 0 933.2 0.9 26
2019-06-17 23:00:00 21.1 10 Oeste 33 Sudoeste 0 933.4 1.1 27
2019-06-17 22:00:00 22.3 14 Oeste 53 Sudoeste 0 932.9 0.6 24
2019-06-17 21:00:00 22.4 9 Oeste 21 Noroeste 0 932.3 -0.1 25
2019-06-17 20:00:00 23.4 9 Oeste 26 Noroeste 0 932.3 0 24
2019-06-17 19:00:00 24.6 9 Oeste 29 Oeste 0 932.3 -0.3 22
2019-06-17 18:00:00 26.2 12 Oeste 28 Oeste 0 932.4 -0.5 18
2019-06-17 17:00:00 26.6 12 Oeste 33 Sudoeste 0 932.3 -1.2 16
2019-06-17 16:00:00 28 15 Sudoeste 40 Sur 0 932.6 -1.5 14
2019-06-17 15:00:00 27.8 19 Sudoeste 37 Sudoeste 0 932.9 -1.5 14
2019-06-17 14:00:00 27.2 17 Sudoeste 40 Sur 0 933.5 -1.5 18
2019-06-17 13:00:00 25.5 12 Sur 39 Sur 0 934.1 -0.9 24
2019-06-17 12:00:00 23.5 10 Sur 30 Sur 0 934.4 -0.8 29
2019-06-17 11:00:00 20.5 5 Sur 13 Sur 0 935 -0.2 48
2019-06-17 10:00:00 17.8 5 Nordeste 12 Norte 0 935 0.1 59
2019-06-17 09:00:00 16.2 5 Nordeste 12 Nordeste 0 935.2 0.5 59
2019-06-17 08:00:00 13.4 6 Norte 11 Norte 0 935.2 0.3 68
2019-06-17 07:00:00 10.8 2 Norte 4 Norte 0 934.9 0 74
2019-06-17 06:00:00 11.4 2 Nordeste 6 Norte 0 934.7 -0.4 72
2019-06-17 05:00:00 13.1 0 Calma 4 Norte 0 934.9 0 62
2019-06-17 04:00:00 12.8 3 Norte 8 Norte 0 934.9 0 61
2019-06-17 03:00:00 13 4 Norte 21 Este 0 935.1 0.2 59
2019-06-17 02:00:00 15.8 3 Norte 8 Norte 0 934.9 0.2 40
2019-06-17 01:00:00 17 0 Calma 8 Oeste 0 934.9 0.7 41
2019-06-17 00:00:00 20.4 6 Oeste 13 Oeste 0 934.9 1 29
2019-06-16 23:00:00 21.4 6 Oeste 15 Oeste 0 934.7 0.8 26
2019-06-16 22:00:00 23.5 8 Oeste 19 Oeste 0 934.2 0.4 21
2019-06-16 21:00:00 25.4 7 Oeste 21 Sudoeste 0 933.9 -0.1 18
2019-06-16 20:00:00 27.1 8 Sudoeste 24 Sur 0 933.9 -0.6 14
2019-06-16 19:00:00 27 11 Sudoeste 27 Sudoeste 0 933.8 -1.2 13
2019-06-16 18:00:00 27.7 9 Sur 23 Sur 0 934 -1.7 14
2019-06-16 17:00:00 27 6 Sudoeste 23 Sur 0 934.5 -1.6 16
2019-06-16 16:00:00 25.9 7 Oeste 24 Oeste 0 935 -1.7 18
2019-06-16 15:00:00 25.1 9 Sudoeste 24 Sudeste 0 935.7 -1.4 21
2019-06-16 14:00:00 24.6 6 Sudeste 20 Sur 0 936.1 -1.5 23
2019-06-16 13:00:00 22.7 6 Sudeste 19 Nordeste 0 936.7 -1.3 30
2019-06-16 12:00:00 20 8 Nordeste 19 Nordeste 0 937.1 -0.6 40
2019-06-16 11:00:00 16.8 5 Nordeste 14 Nordeste 0 937.6 0 49
2019-06-16 10:00:00 14.7 5 Nordeste 17 Nordeste 0 938 0.7 58
2019-06-16 09:00:00 13 10 Norte 19 Norte 0 937.7 0.6 64
2019-06-16 08:00:00 11.8 6 Norte 14 Norte 0 937.6 0.3 70
2019-06-16 07:00:00 9.4 7 Norte 13 Norte 0 937.3 -0.2 79
2019-06-16 06:00:00 9.6 8 Norte 14 Norte 0 937.1 -0.6 78
2019-06-16 05:00:00 10 5 Norte 16 Nordeste 0 937.3 -0.6 77
2019-06-16 04:00:00 10.7 8 Nordeste 15 Nordeste 0 937.5 -0.2 75
2019-06-16 03:00:00 11.9 8 Nordeste 14 Nordeste 0 937.7 0.2 71
2019-06-16 02:00:00 12.7 6 Norte 19 Nordeste 0 937.9 0.9 61
2019-06-16 01:00:00 14.9 3 Norte 14 Noroeste 0 937.7 1.4 48
2019-06-16 00:00:00 16.8 8 Noroeste 14 Oeste 0 937.5 1.5 38
2019-06-15 23:00:00 18.6 8 Oeste 16 Oeste 0 937 1.2 32
2019-06-15 22:00:00 20.3 8 Sudoeste 17 Sur 0 936.3 0.6 28
2019-06-15 21:00:00 22.2 10 Sudoeste 23 Sudoeste 0 936 0 25
2019-06-15 20:00:00 23.4 9 Oeste 21 Oeste 0 935.8 -0.7 22
2019-06-15 19:00:00 24.1 9 Oeste 23 Sudeste 0 935.7 -1.3 20
2019-06-15 18:00:00 23.7 6 Sudeste 26 Sur 0 936 -1.4 21
2019-06-15 17:00:00 22.8 6 Sudoeste 23 Sur 0 936.5 -1.2 23
2019-06-15 16:00:00 21.9 7 Sur 26 Este 0 937 -0.8 25
2019-06-15 15:00:00 19.8 6 Sur 27 Sudeste 0 937.4 -0.6 29
2019-06-15 14:00:00 18.5 6 Este 21 Sudoeste 0 937.7 -0.1 32
2019-06-15 13:00:00 17.6 7 Sudoeste 21 Sur 0 937.8 -0.1 36
2019-06-15 12:00:00 16 4 Este 19 Noroeste 0 938 0.4 42
2019-06-15 11:00:00 15.2 5 Oeste 17 Nordeste 0 937.8 0.8 46
2019-06-15 10:00:00 13.7 7 Norte 16 Noroeste 0 937.9 1.3 52
2019-06-15 09:00:00 11 5 Oeste 10 Noroeste 0 937.6 1.5 64
2019-06-15 08:00:00 9.8 4 Oeste 11 Oeste 0 937 1.4 69
2019-06-15 07:00:00 8.7 6 Oeste 15 Oeste 0 936.6 1 74
2019-06-15 06:00:00 9.4 5 Sudoeste 9 Oeste 0 936.1 0.6 72
2019-06-15 05:00:00 10.7 4 Sudoeste 16 Noroeste 0 935.6 0.4 67
2019-06-15 04:00:00 11.4 6 Oeste 17 Noroeste 0 935.6 0.6 64
2019-06-15 03:00:00 11.8 8 Noroeste 17 Noroeste 0 935.5 1 63
2019-06-15 02:00:00 12.1 7 Oeste 16 Oeste 0 935.2 1.5 60
2019-06-15 01:00:00 12.5 7 Noroeste 21 Oeste 0 935 2.2 58
2019-06-15 00:00:00 13.6 7 Oeste 23 Oeste 0 934.5 2.7 53
2019-06-14 23:00:00 15.1 10 Oeste 31 Sudoeste 0 933.7 3 48
2019-06-14 22:00:00 16.2 13 Sudoeste 37 Sudoeste 0 932.8 2.6 42
2019-06-14 21:00:00 18.2 14 Sudoeste 38 Sudoeste 0 931.8 1.8 32
2019-06-14 20:00:00 19.9 16 Oeste 43 Sudoeste 0 930.7 0.9 27
2019-06-14 19:00:00 20.6 18 Sudoeste 41 Sudoeste 0 930.2 0.8 25
2019-06-14 18:00:00 21.1 13 Oeste 45 Oeste 0 930 0.6 25
2019-06-14 17:00:00 21.8 17 Oeste 39 Sudoeste 0 929.8 0 26
2019-06-14 16:00:00 21.5 14 Oeste 36 Oeste 0 929.4 -0.5 26
2019-06-14 15:00:00 21.6 10 Sudoeste 28 Sur 0 929.4 -0.7 29
2019-06-14 14:00:00 20.2 9 Oeste 23 Oeste 0 929.8 -0.3 33
2019-06-14 13:00:00 18.7 7 Sudoeste 17 Sudoeste 0 929.9 -0.4 41
2019-06-14 12:00:00 16.8 4 Norte 16 Nordeste 0 930.1 -0.2 48
2019-06-14 11:00:00 14.8 6 Nordeste 21 Norte 0 930.1 0.1 54
2019-06-14 10:00:00 13 8 Norte 20 Nordeste 0 930.3 0.5 61
2019-06-14 09:00:00 11 8 Noroeste 19 Noroeste 0 930.3 0.3 65
2019-06-14 08:00:00 9.2 9 Noroeste 19 Noroeste 0 930 0 73
2019-06-14 07:00:00 7.8 8 Norte 21 Norte 0 929.8 -0.1 82
2019-06-14 06:00:00 7.9 5 Norte 10 Nordeste 0 930 0 82
2019-06-14 05:00:00 8.7 4 Norte 13 Nordeste 0 930 0.1 79
2019-06-14 04:00:00 8.6 5 Nordeste 14 Este 0 929.9 0 75
2019-06-14 03:00:00 9.6 7 Nordeste 15 Norte 0 930 0.2 66
2019-06-14 02:00:00 11 7 Norte 13 Norte 0 929.9 0.7 57
2019-06-14 01:00:00 12 6 Noroeste 26 Noroeste 0 929.9 1.5 52
2019-06-14 00:00:00 13.9 11 Noroeste 21 Noroeste 0 929.8 1.8 45
2019-06-13 23:00:00 15.4 9 Noroeste 18 Noroeste 0 929.2 1.7 39
2019-06-13 22:00:00 17.7 7 Oeste 27 Noroeste 0 928.4 1.3 30
2019-06-13 21:00:00 19.8 10 Oeste 27 Sudoeste 0 928 0.9 26
2019-06-13 20:00:00 21.3 15 Oeste 32 Oeste 0 927.5 0.5 21
2019-06-13 19:00:00 22.1 17 Oeste 40 Sur 0 927.1 -0.1 20
2019-06-13 18:00:00 22.5 17 Sudoeste 38 Sudoeste 0 927.1 -0.3 18
2019-06-13 17:00:00 22.6 14 Sudoeste 39 Oeste 0 927 -0.9 19
2019-06-13 16:00:00 22.3 15 Sudoeste 39 Sudoeste 0 927.2 -1.1 19
2019-06-13 15:00:00 21.6 12 Sudoeste 30 Sur 0 927.4 -1.2 22
2019-06-13 14:00:00 19.8 9 Sudoeste 31 Sur 0 927.9 -0.8 28
2019-06-13 13:00:00 17.9 10 Sudoeste 23 Sudoeste 0 928.3 -0.7 34
2019-06-13 12:00:00 16.3 5 Sudeste 14 Sudoeste 0 928.6 -0.2 42
2019-06-13 11:00:00 14.4 3 Norte 14 Nordeste 0 928.7 0 51
2019-06-13 10:00:00 12.4 7 Nordeste 24 Nordeste 0 929 0.4 58
2019-06-13 09:00:00 10.7 9 Nordeste 15 Este 0 928.8 0.4 62
2019-06-13 08:00:00 8.7 5 Norte 13 Norte 0 928.7 0.3 72
2019-06-13 07:00:00 6.6 6 Norte 13 Norte 0 928.6 -0.1 79
2019-06-13 06:00:00 7.2 6 Noroeste 12 Norte 0 928.4 -0.3 78
2019-06-13 05:00:00 7.8 4 Norte 11 Nordeste 0 928.4 -0.6 75
2019-06-13 04:00:00 8.8 5 Norte 13 Nordeste 0 928.7 -0.2 72
2019-06-13 03:00:00 9.6 6 Norte 13 Norte 0 928.7 -0.4 68
2019-06-13 02:00:00 10.4 7 Norte 19 Norte 0 929 0 64
2019-06-13 01:00:00 12.6 10 Norte 24 Norte 0 928.9 0.5 47
2019-06-13 00:00:00 13.5 11 Noroeste 22 Noroeste 0 929.1 0.8 43
2019-06-12 23:00:00 15.6 8 Noroeste 17 Oeste 0 929 0.8 32
2019-06-12 22:00:00 17.9 6 Oeste 20 Oeste 0 928.4 0 26
2019-06-12 21:00:00 19.8 10 Sudoeste 23 Sudoeste 0 928.3 -0.6 19
2019-06-12 20:00:00 21.5 8 Oeste 23 Sudoeste 0 928.2 -1.3 17
2019-06-12 19:00:00 21.3 7 Sudoeste 26 Sudoeste 0 928.4 -1.7 18
2019-06-12 18:00:00 20.9 9 Sur 26 Sudoeste 0 928.9 -1.8 19
2019-06-12 17:00:00 20.7 11 Sur 24 Sudoeste 0 929.5 -2.1 19
2019-06-12 16:00:00 18.8 6 Noroeste 27 Sudoeste 0 930.1 -2 22
2019-06-12 15:00:00 18.4 5 Noroeste 19 Nordeste 0 930.7 -1.8 24
2019-06-12 14:00:00 17.5 5 Noroeste 30 Sudoeste 0 931.6 -1.3 22
2019-06-12 13:00:00 15.9 7 Sudoeste 27 Sudoeste 0 932.1 -1.1 31
2019-06-12 12:00:00 14.8 5 Este 19 Nordeste 0 932.5 -0.7 34
2019-06-12 11:00:00 13.4 8 Norte 23 Nordeste 0 932.9 -0.2 38
2019-06-12 10:00:00 11.9 12 Noroeste 31 Noroeste 0 933.2 0.2 45
2019-06-12 09:00:00 9.7 10 Noroeste 21 Noroeste 0 933.2 0.5 52
2019-06-12 08:00:00 7.2 6 Noroeste 13 Noroeste 0 933.1 -0.1 65
2019-06-12 07:00:00 4.8 3 Este 17 Norte 0 933 -0.4 75
2019-06-12 06:00:00 6.5 11 Norte 20 Norte 0 932.7 -1.1 67
2019-06-12 05:00:00 6.9 9 Noroeste 21 Noroeste 0 933.2 -0.7 67
2019-06-12 04:00:00 7.1 10 Noroeste 20 Noroeste 0 933.4 -0.7 64
2019-06-12 03:00:00 7.7 4 Norte 13 Norte 0 933.8 -0.3 61
2019-06-12 02:00:00 8.1 6 Norte 12 Norte 0 933.9 -0.3 57
2019-06-12 01:00:00 9.2 5 Norte 14 Norte 0 934.1 0.4 53
2019-06-12 00:00:00 10.4 6 Norte 25 Nordeste 0 934.1 0.6 47
2019-06-11 23:00:00 12.2 13 Norte 33 Norte 0 934.2 1 41
2019-06-11 22:00:00 13.7 19 Norte 38 Norte 0 933.7 0.6 38
2019-06-11 21:00:00 16.5 14 Norte 33 Norte 0 933.5 0.4 30
2019-06-11 20:00:00 18.5 14 Norte 38 Norte 0 933.2 -0.2 26
2019-06-11 19:00:00 19.2 15 Norte 33 Nordeste 0 933.1 -0.4 24
2019-06-11 18:00:00 18.9 13 Norte 38 Nordeste 0 933.1 -0.6 25
2019-06-11 17:00:00 18.2 17 Norte 42 Norte 0 933.4 -0.2 23
2019-06-11 16:00:00 17.9 17 Norte 49 Norte 0 933.5 -0.2 26
2019-06-11 15:00:00 17.9 17 Norte 42 Norte 0 933.7 -0.2 24
2019-06-11 14:00:00 17 17 Norte 37 Nordeste 0 933.6 0 26
2019-06-11 13:00:00 16.4 20 Norte 41 Norte 0 933.7 0 27
2019-06-11 12:00:00 14.8 18 Norte 40 Norte 0 933.9 0.4 34
2019-06-11 11:00:00 14 18 Norte 37 Norte 0 933.6 0.3 40
2019-06-11 10:00:00 12.3 15 Norte 32 Norte 0 933.7 0.9 48
2019-06-11 09:00:00 11.7 12 Norte 29 Norte 0 933.5 0.9 53
2019-06-11 08:00:00 10.1 15 Norte 27 Norte 0 933.3 0.3 58
2019-06-11 07:00:00 9.5 11 Norte 21 Norte 0 932.8 -0.2 61
2019-06-11 06:00:00 9.3 9 Norte 18 Norte 0 932.6 -0.5 62
2019-06-11 05:00:00 10.5 10 Norte 28 Norte 0 933 -0.3 56
2019-06-11 04:00:00 11.3 10 Norte 26 Norte 0 933 -0.4 54
2019-06-11 03:00:00 12.1 12 Norte 28 Norte 0 933.1 -0.5 52
2019-06-11 02:00:00 13.2 11 Norte 36 Norte 0 933.3 0 54
2019-06-11 01:00:00 13.8 12 Norte 35 Norte 0 933.4 0.9 55
2019-06-11 00:00:00 14.5 17 Norte 39 Norte 0 933.6 1.4 47
2019-06-10 23:00:00 15.5 17 Noroeste 42 Norte 0 933.3 1.5 43
2019-06-10 22:00:00 16.7 18 Noroeste 38 Norte 0 932.5 0.6 36
2019-06-10 21:00:00 18.3 18 Norte 40 Noroeste 0 932.2 -0.2 29
2019-06-10 20:00:00 20.4 16 Norte 32 Norte 0 931.8 -1.3 23
2019-06-10 19:00:00 21.5 15 Noroeste 31 Norte 0 931.9 -1.9 23
2019-06-10 18:00:00 21.7 5 Noroeste 23 Sudoeste 0 932.4 -2.4 22
2019-06-10 17:00:00 22.4 8 Sur 26 Sudeste 0 933.1 -2.4 24
2019-06-10 16:00:00 22.3 9 Noroeste 21 Norte 0 933.8 -2.4 23
2019-06-10 15:00:00 20.2 8 Noroeste 23 Sudoeste 0 934.8 -1.8 27
2019-06-10 14:00:00 18.3 7 Oeste 18 Oeste 0 935.5 -1.4 30
2019-06-10 13:00:00 16.7 8 Sudoeste 19 Oeste 0 936.2 -1.1 36
2019-06-10 12:00:00 16.4 8 Oeste 34 Sudoeste 0 936.6 -0.8 40
2019-06-10 11:00:00 14.7 6 Noroeste 15 Norte 0 936.9 -0.4 46
2019-06-10 10:00:00 13.3 4 Nordeste 10 Noroeste 0 937.3 0.3 61
2019-06-10 09:00:00 11.3 3 Norte 8 Norte 0 937.4 0.6 72
2019-06-10 08:00:00 8.4 0 Calma 7 Norte 0 937.3 0.4 77
2019-06-10 07:00:00 7.5 3 Noroeste 12 Este 0 937 -0.3 82
2019-06-10 06:00:00 6.9 0 Calma 3 Norte 0 936.8 -0.8 81
2019-06-10 05:00:00 7.6 3 Norte 5 Norte 0 936.9 -1 80
2019-06-10 04:00:00 8.3 2 Nordeste 14 Oeste 0 937.3 -0.4 76
2019-06-10 03:00:00 9.3 0 Calma 4 Sur 0 937.6 0.1 73
2019-06-10 02:00:00 10.2 2 Nordeste 9 Norte 0 937.9 1.1 69
2019-06-10 01:00:00 11.5 5 Norte 14 Nordeste 0 937.7 2.3 64
2019-06-10 00:00:00 13.2 8 Nordeste 21 Nordeste 0 937.5 2.7 60
2019-06-09 23:00:00 14.9 8 Norte 29 Norte 0 936.8 2.5 53
2019-06-09 22:00:00 16.4 12 Norte 33 Noroeste 0 935.4 1.5 47
2019-06-09 21:00:00 17 14 Norte 33 Noroeste 0 934.8 1.4 43
2019-06-09 20:00:00 19.6 11 Noroeste 29 Noroeste 0 934.3 1.3 34
2019-06-09 19:00:00 19.1 17 Noroeste 39 Noroeste 0 933.9 0.7 39
2019-06-09 18:00:00 19.5 13 Noroeste 30 Noroeste 0.4 933.4 -0.3 44
2019-06-09 17:00:00 22.9 10 Oeste 37 Sudoeste 0 933 -1.1 23
2019-06-09 16:00:00 22.8 10 Sudoeste 44 Oeste 0 933.2 -1.5 21
2019-06-09 15:00:00 22.7 12 Sudoeste 27 Sudoeste 0 933.7 -1.4 21
2019-06-09 14:00:00 21.8 10 Sudoeste 26 Sudoeste 0 934.1 -1.2 24
2019-06-09 13:00:00 19.4 7 Sur 23 Sudeste 0 934.7 -0.9 39
2019-06-09 12:00:00 17.4 5 Oeste 22 Sudoeste 0 935.1 -0.4 49
2019-06-09 11:00:00 15.6 7 Sudoeste 17 Sudoeste 0 935.3 0 58
2019-06-09 10:00:00 14.6 5 Norte 11 Nordeste 0 935.6 0.5 62
2019-06-09 09:00:00 13.6 3 Este 8 Este 0 935.5 0.5 66
2019-06-09 08:00:00 11.8 0 Calma 5 Noroeste 0 935.3 0.2 72
2019-06-09 07:00:00 8.9 3 Noroeste 11 Este 0 935.1 -0.1 80
2019-06-09 06:00:00 9.6 0 Calma 4 Sudeste 0 935 -0.5 79
2019-06-09 05:00:00 10.3 0 Calma 6 Este 0 935.1 -0.7 78
2019-06-09 04:00:00 11 0 Calma 8 Este 0 935.2 -0.6 74
2019-06-09 03:00:00 12.2 3 Nordeste 16 Este 0 935.5 -0.3 72
2019-06-09 02:00:00 13.8 6 Nordeste 22 Norte 0 935.8 0.6 66
2019-06-09 01:00:00 16 13 Norte 32 Norte 0 935.8 1.3 51
2019-06-09 00:00:00 17 13 Norte 24 Norte 0 935.8 1.6 47
2019-06-08 23:00:00 17.8 9 Norte 21 Noroeste 0 935.2 0.9 41
2019-06-08 22:00:00 19.8 6 Noroeste 13 Noroeste 0 934.5 0.2 26
2019-06-08 21:00:00 21.1 8 Noroeste 18 Oeste 0 934.2 -0.7 22
2019-06-08 20:00:00 22.1 9 Oeste 18 Oeste 0 934.3 -1.1 20
2019-06-08 19:00:00 22.9 9 Oeste 23 Sudoeste 0 934.3 -1.7 18
2019-06-08 18:00:00 23.5 10 Sudoeste 27 Sur 0 934.9 -1.9 16
2019-06-08 17:00:00 23.2 10 Sudoeste 26 Sudoeste 0 935.4 -2.1 17
2019-06-08 16:00:00 21.5 9 Este 21 Sudeste 0 936 -2.3 22
2019-06-08 15:00:00 21 5 Sudeste 22 Sur 0 936.8 -2 24
2019-06-08 14:00:00 20.2 8 Sudeste 27 Nordeste 0 937.5 -1.9 27
2019-06-08 13:00:00 17.8 6 Nordeste 21 Nordeste 0 938.3 -1.7 35
2019-06-08 12:00:00 15.8 7 Nordeste 19 Norte 0 938.8 -1.3 45
2019-06-08 11:00:00 13.4 5 Norte 14 Nordeste 0 939.4 -0.7 58
2019-06-08 10:00:00 10.9 6 Nordeste 21 Nordeste 0 940 0.1 67
2019-06-08 09:00:00 8.9 9 Nordeste 15 Nordeste 0 940.1 0.5 72
2019-06-08 08:00:00 6.6 5 Norte 14 Este 0 940.1 0.5 80
2019-06-08 07:00:00 5.3 3 Norte 9 Noroeste 0 939.9 0.5 82
2019-06-08 06:00:00 5.7 4 Noroeste 13 Nordeste 0 939.6 0 81
2019-06-08 05:00:00 6.4 4 Nordeste 15 Norte 0 939.6 0 82
2019-06-08 04:00:00 6.9 5 Noroeste 12 Norte 0 939.4 -0.3 80
2019-06-08 03:00:00 7.4 5 Nordeste 14 Norte 0 939.6 0.1 76
2019-06-08 02:00:00 7.6 5 Norte 14 Norte 0 939.6 0.7 75
2019-06-08 01:00:00 9.1 9 Norte 19 Norte 0 939.7 1.7 68
2019-06-08 00:00:00 10.2 11 Norte 24 Norte 0 939.5 2.2 62
2019-06-07 23:00:00 11 7 Norte 19 Nordeste 0 938.9 2.1 52
2019-06-07 22:00:00 12.9 9 Nordeste 23 Norte 0 938 1.8 47
2019-06-07 21:00:00 16.2 9 Oeste 24 Oeste 0 937.3 1.4 35
2019-06-07 20:00:00 17.7 10 Oeste 31 Sudoeste 0 936.8 1.3 29
2019-06-07 19:00:00 18.4 14 Oeste 32 Noroeste 0 936.2 0.9 26
2019-06-07 18:00:00 18.3 13 Sudoeste 37 Sudoeste 0 935.9 1 27
2019-06-07 17:00:00 17.6 15 Oeste 39 Oeste 0 935.5 0.7 27
2019-06-07 16:00:00 17.4 11 Oeste 35 Sudoeste 0 935.3 0.9 27
2019-06-07 15:00:00 17.2 13 Oeste 35 Sudoeste 0 934.9 1 27
2019-06-07 14:00:00 15.8 11 Oeste 28 Oeste 0 934.8 1.6 32
2019-06-07 13:00:00 15.8 13 Oeste 30 Sudoeste 0 934.4 2 31
2019-06-07 12:00:00 13.7 10 Oeste 24 Oeste 0 933.9 2.3 40
2019-06-07 11:00:00 12.4 8 Oeste 30 Noroeste 0 933.2 2.4 50
2019-06-07 10:00:00 10.9 13 Oeste 28 Sudoeste 0 932.4 2.8 58
2019-06-07 09:00:00 9.5 12 Oeste 27 Oeste 0 931.6 2.7 66
2019-06-07 08:00:00 7.9 10 Sudoeste 26 Sudoeste 0 930.8 2.5 74
2019-06-07 07:00:00 7.1 11 Sudoeste 22 Sudoeste 0 929.6 2.1 76
2019-06-07 06:00:00 7 3 Oeste 26 Oeste 0 928.9 2.2 79
2019-06-07 05:00:00 7.7 12 Sudoeste 31 Sudoeste 0 928.3 2.2 78
2019-06-07 04:00:00 8.1 12 Sudoeste 31 Sudoeste 0 927.5 1.7 77
2019-06-07 03:00:00 8.1 17 Sudoeste 34 Sudoeste 0 926.7 1.4 79
2019-06-07 02:00:00 8.5 16 Sudoeste 38 Sudoeste 0 926.1 1.2 78
2019-06-07 01:00:00 8.9 12 Sudoeste 30 Sudoeste 0 925.8 1.6 77
2019-06-07 00:00:00 9.5 15 Sudoeste 35 Sudoeste 0 925.3 2.4 76
2019-06-06 23:00:00 10.4 15 Sudoeste 36 Sudoeste 0 924.9 2.2 74
2019-06-06 22:00:00 10.5 14 Oeste 46 Oeste 2.2 924.2 1.3 78
2019-06-06 21:00:00 14 15 Sudoeste 36 Sudoeste 0 922.9 0.2 71
2019-06-06 20:00:00 13.9 19 Sudoeste 58 Oeste 0.2 922.7 -0.6 73
2019-06-06 19:00:00 16.5 29 Sudoeste 69 Sudoeste 0 922.9 -1.2 50
2019-06-06 18:00:00 18.3 22 Sudoeste 63 Sudoeste 0 922.7 -3 38
2019-06-06 17:00:00 19.4 22 Sudoeste 58 Sudoeste 0 923.3 -3.6 30
2019-06-06 16:00:00 20.2 22 Sudoeste 58 Sudoeste 0 924.1 -4 26
2019-06-06 15:00:00 18.8 21 Sur 48 Sudoeste 0 925.7 -3.2 26
2019-06-06 14:00:00 17 19 Sur 45 Sudoeste 0 926.9 -2.7 29
2019-06-06 13:00:00 15.6 16 Sur 33 Sur 0 928.1 -2.1 37
2019-06-06 12:00:00 14.7 14 Sur 35 Sur 0 928.9 -1.9 39
2019-06-06 11:00:00 13.3 13 Sur 26 Sur 0 929.6 -1.6 43
2019-06-06 10:00:00 11.3 8 Sur 15 Sur 0 930.2 -1.3 54
2019-06-06 09:00:00 8.5 5 Sur 11 Sur 0 930.8 -0.9 63
2019-06-06 08:00:00 6.5 2 Nordeste 6 Nordeste 0 931.2 -0.6 75
2019-06-06 07:00:00 5.3 3 Sudeste 5 Sudeste 0 931.5 -0.6 77
2019-06-06 06:00:00 5.6 0 Calma 4 Nordeste 0 931.7 -0.7 74
2019-06-06 05:00:00 6.5 0 Calma 3 Sudeste 0 931.8 -0.6 70
2019-06-06 04:00:00 7.5 2 Noroeste 5 Sudeste 0 932.1 -0.5 68
2019-06-06 03:00:00 9.1 0 Calma 11 Noroeste 0 932.4 0 63
2019-06-06 02:00:00 9.8 3 Noroeste 8 Nordeste 0 932.4 0 61
2019-06-06 01:00:00 10.5 6 Norte 19 Noroeste 0 932.6 0.8 58
2019-06-06 00:00:00 10.9 9 Norte 26 Noroeste 0 932.4 0.9 54
2019-06-05 23:00:00 11.2 12 Norte 27 Norte 0 932.4 1.4 53
2019-06-05 22:00:00 13.3 11 Noroeste 25 Oeste 0 931.8 1 44
2019-06-05 21:00:00 14.3 10 Noroeste 32 Oeste 0 931.5 0.9 37
2019-06-05 20:00:00 15.9 12 Oeste 34 Oeste 0 931 0.5 31
2019-06-05 19:00:00 16.5 13 Oeste 37 Oeste 0 930.8 0.3 29
2019-06-05 18:00:00 16.9 19 Noroeste 38 Noroeste 0 930.6 -0.1 31
2019-06-05 17:00:00 18 15 Sudoeste 40 Oeste 0 930.5 -0.4 25
2019-06-05 16:00:00 18.5 17 Oeste 39 Sudoeste 0 930.5 -0.5 22
2019-06-05 15:00:00 17.4 16 Oeste 33 Noroeste 0 930.7 -0.1 30
2019-06-05 14:00:00 18.1 10 Noroeste 31 Noroeste 0 930.9 0.2 27
2019-06-05 13:00:00 16 6 Noroeste 30 Norte 0 931 0.6 33
2019-06-05 12:00:00 15.9 11 Oeste 32 Noroeste 0 930.8 0.9 33
2019-06-05 11:00:00 14.2 11 Noroeste 40 Noroeste 0 930.7 1 40
2019-06-05 10:00:00 13.4 14 Noroeste 40 Noroeste 0 930.4 1.3 45
2019-06-05 09:00:00 12 13 Noroeste 34 Noroeste 0 929.9 1.1 50
2019-06-05 08:00:00 9.8 9 Oeste 20 Oeste 0 929.7 0.9 60
2019-06-05 07:00:00 8.7 10 Noroeste 19 Noroeste 0 929.1 0.2 66
2019-06-05 06:00:00 9.2 12 Noroeste 26 Noroeste 0 928.8 -0.4 65
2019-06-05 05:00:00 9.1 12 Noroeste 28 Noroeste 0 928.8 -0.1 68
2019-06-05 04:00:00 9.7 14 Noroeste 31 Noroeste 0 928.9 0.1 66
2019-06-05 03:00:00 10.2 7 Oeste 24 Noroeste 0 929.2 0.4 64
2019-06-05 02:00:00 10.7 10 Noroeste 31 Noroeste 0 928.9 0.5 61
2019-06-05 01:00:00 11.5 17 Noroeste 35 Noroeste 0 928.8 0.7 60
2019-06-05 00:00:00 13.2 14 Noroeste 28 Noroeste 0 928.8 0.8 56
2019-06-04 23:00:00 15.8 10 Noroeste 26 Oeste 0 928.4 0.3 38
2019-06-04 22:00:00 17 10 Oeste 29 Oeste 0 928.1 0 32
2019-06-04 21:00:00 18.1 11 Oeste 39 Noroeste 0 928 -0.6 30
2019-06-04 20:00:00 19.2 14 Oeste 38 Noroeste 0 928.1 -0.9 37
2019-06-04 19:00:00 20.1 18 Oeste 39 Oeste 0 928.1 -0.5 38
2019-06-04 18:00:00 20.1 17 Oeste 45 Oeste 0 928.6 -0.1 41
2019-06-04 17:00:00 20.7 15 Oeste 40 Oeste 0 929 0.1 46
2019-06-04 16:00:00 21.1 17 Oeste 40 Oeste 0 928.6 -0.6 45
2019-06-04 15:00:00 21.5 19 Oeste 48 Sudoeste 0 928.7 -0.5 43
2019-06-04 14:00:00 21.4 16 Sudoeste 35 Sudoeste 0 928.9 -0.7 41
2019-06-04 13:00:00 20.7 17 Sudoeste 38 Sur 0 929.2 -0.6 43
2019-06-04 12:00:00 19.4 15 Sudoeste 29 Sudoeste 0 929.2 -0.3 47
2019-06-04 11:00:00 17.6 17 Oeste 36 Sudoeste 0 929.6 0.2 53
2019-06-04 10:00:00 15.5 16 Oeste 37 Oeste 0 929.8 0.6 60
2019-06-04 09:00:00 14.2 10 Sudoeste 24 Sudoeste 0 929.5 0.5 62
2019-06-04 08:00:00 12.7 7 Sudoeste 18 Sudoeste 0 929.4 -0.1 70
2019-06-04 07:00:00 12.4 10 Sudoeste 31 Sudoeste 0 929.2 -0.6 73
2019-06-04 06:00:00 13 12 Sudoeste 28 Sur 0 929 -0.9 72
2019-06-04 05:00:00 13.7 11 Sudoeste 25 Oeste 0 929.5 -1 71
2019-06-04 04:00:00 14.5 5 Sudoeste 14 Oeste 0 929.8 -1.3 70
2019-06-04 03:00:00 15.9 9 Sudoeste 19 Oeste 0 929.9 -1.6 65
2019-06-04 02:00:00 17.1 3 Sudoeste 22 Sudoeste 0 930.5 -0.9 61
2019-06-04 01:00:00 18.5 7 Sudoeste 22 Oeste 0 931.1 0.4 57
2019-06-04 00:00:00 19.8 10 Sudoeste 31 Oeste 0 931.5 0.9 55
2019-06-03 23:00:00 21.7 12 Oeste 25 Oeste 0 931.4 0.7 52
2019-06-03 22:00:00 23.6 9 Oeste 24 Oeste 0 930.7 -0.4 46
2019-06-03 21:00:00 25.9 9 Oeste 31 Oeste 0 930.6 -0.7 35
2019-06-03 20:00:00 27.2 15 Sudoeste 36 Sudoeste 0 930.7 -1 28
2019-06-03 19:00:00 27.8 15 Sudoeste 39 Sudoeste 0 931.1 -1 27
2019-06-03 18:00:00 28.3 17 Sudoeste 42 Oeste 0 931.3 -1.3 25
2019-06-03 17:00:00 28.2 17 Sudoeste 49 Sudoeste 0 931.7 -1.6 26
2019-06-03 16:00:00 28.2 15 Sudoeste 37 Sur 0 932.1 -1.9 27
2019-06-03 15:00:00 27.9 15 Sudoeste 37 Sudoeste 0 932.6 -1.8 27
2019-06-03 14:00:00 27.2 14 Sudoeste 31 Sur 0 933.3 -1.4 28
2019-06-03 13:00:00 26.2 6 Sur 21 Sur 0 934 -1 29
2019-06-03 12:00:00 24.4 7 Sur 20 Sur 0 934.4 -0.6 29
2019-06-03 11:00:00 22.1 6 Sudoeste 15 Sudoeste 0 934.7 -0.1 30
2019-06-03 10:00:00 20.5 7 Sudoeste 14 Sudoeste 0 935 0.6 33
2019-06-03 09:00:00 17.9 3 Noroeste 9 Noroeste 0 935 0.6 43
2019-06-03 08:00:00 17.2 4 Oeste 14 Oeste 0 934.8 0.4 44
2019-06-03 07:00:00 16.9 2 Sur 10 Sudoeste 0 934.4 -0.2 45
2019-06-03 06:00:00 17.7 6 Sudoeste 15 Sudoeste 0 934.4 -0.3 43
2019-06-03 05:00:00 18 4 Sur 11 Oeste 0 934.4 -0.6 42
2019-06-03 04:00:00 18.1 2 Sudoeste 13 Sudoeste 0 934.6 -0.6 41
2019-06-03 03:00:00 19.8 5 Sudoeste 14 Sudoeste 0 934.7 -0.5 35
2019-06-03 02:00:00 20.4 4 Sudoeste 10 Oeste 0 935 0 33
2019-06-03 01:00:00 21.4 4 Sudoeste 11 Sudeste 0 935.2 0.5 29
2019-06-03 00:00:00 22.2 3 Noroeste 11 Oeste 0 935.2 0.7 25
2019-06-02 23:00:00 23.5 3 Oeste 12 Oeste 0 935 0.6 21
2019-06-02 22:00:00 24.8 6 Oeste 19 Oeste 0 934.7 0.2 17
2019-06-02 21:00:00 26.1 6 Oeste 23 Noroeste 0 934.5 -0.1 14
2019-06-02 20:00:00 27.8 10 Noroeste 28 Oeste 0 934.4 -0.3 15
2019-06-02 19:00:00 29 11 Oeste 33 Oeste 0 934.5 -0.4 14
2019-06-02 18:00:00 29.7 14 Sudoeste 34 Oeste 0 934.6 -0.5 12
2019-06-02 17:00:00 30.1 14 Oeste 33 Oeste 0 934.7 -0.9 11
2019-06-02 16:00:00 30.2 14 Sudoeste 34 Oeste 0 934.9 -1.1 11
2019-06-02 15:00:00 30.1 16 Oeste 37 Sudoeste 0 935.1 -1.2 10
2019-06-02 14:00:00 29.9 11 Oeste 28 Oeste 0 935.6 -1 12
2019-06-02 13:00:00 28.3 5 Noroeste 19 Sur 0 936 -0.7 14
2019-06-02 12:00:00 25.8 6 Sudoeste 16 Sudoeste 0 936.3 0 26
2019-06-02 11:00:00 23.5 5 Sudeste 14 Este 0 936.6 0.5 32
2019-06-02 10:00:00 21.4 3 Norte 14 Nordeste 0 936.7 0.8 40
2019-06-02 09:00:00 18.8 3 Este 9 Nordeste 0 936.3 0.4 51
2019-06-02 08:00:00 16.9 0 Calma 9 Noroeste 0 936.1 0.3 52
2019-06-02 07:00:00 15.1 3 Oeste 10 Oeste 0 935.9 0.2 55
2019-06-02 06:00:00 16.8 4 Oeste 14 Noroeste 0 935.9 -0.3 49
2019-06-02 05:00:00 17 5 Oeste 9 Noroeste 0 935.8 -0.3 49
2019-06-02 04:00:00 17.2 3 Norte 17 Este 0 935.7 -0.5 47
2019-06-02 03:00:00 19.2 6 Noroeste 16 Noroeste 0 936.2 -0.1 39
2019-06-02 02:00:00 19.6 6 Noroeste 17 Noroeste 0 936.1 0.2 38
2019-06-02 01:00:00 21.8 7 Noroeste 18 Noroeste 0 936.2 0.9 33
2019-06-02 00:00:00 23.5 9 Oeste 17 Oeste 0 936.3 1.2 30
2019-06-01 23:00:00 25.7 9 Noroeste 18 Noroeste 0 935.9 1 24
2019-06-01 22:00:00 27.7 6 Oeste 21 Oeste 0 935.3 0.4 21
2019-06-01 21:00:00 30.1 9 Oeste 24 Oeste 0 935.1 -0.1 16
2019-06-01 20:00:00 31.8 9 Oeste 26 Sudoeste 0 934.9 -0.7 15
2019-06-01 19:00:00 32.7 13 Oeste 30 Sudoeste 0 934.9 -1.3 15
2019-06-01 18:00:00 33.2 12 Sudoeste 29 Sudoeste 0 935.2 -1.7 12
2019-06-01 17:00:00 33.2 11 Oeste 34 Sudoeste 0 935.6 -2 12
2019-06-01 16:00:00 32.9 9 Sur 28 Sur 0 936.2 -2 13
2019-06-01 15:00:00 31.6 6 Sur 20 Sur 0 936.9 -1.7 15
2019-06-01 14:00:00 30.9 5 Sudoeste 18 Oeste 0 937.6 -1.2 15
2019-06-01 13:00:00 29.3 4 Sudoeste 12 Este 0 938.2 -0.6 21
2019-06-01 12:00:00 26.4 5 Este 19 Este 0 938.6 -0.1 27
2019-06-01 11:00:00 23.8 5 Nordeste 13 Norte 0 938.8 0 31
2019-06-01 10:00:00 21.2 4 Nordeste 12 Nordeste 0 938.8 0.4 39
2019-06-01 09:00:00 18.6 8 Norte 14 Nordeste 0 938.7 0.5 47
2019-06-01 08:00:00 16.2 3 Norte 12 Norte 0 938.8 0.5 57
2019-06-01 07:00:00 13.3 4 Norte 11 Norte 0 938.4 0.2 64
2019-06-01 06:00:00 13.6 6 Norte 12 Norte 0 938.2 0 59
2019-06-01 05:00:00 13.7 5 Nordeste 10 Nordeste 0 938.3 -0.1 55
2019-06-01 04:00:00 14.5 4 Nordeste 8 Nordeste 0 938.2 0.1 48
2019-06-01 03:00:00 17.1 5 Noroeste 13 Noroeste 0 938.2 -0.1 37
2019-06-01 02:00:00 17.6 5 Norte 17 Nordeste 0 938.4 0.3 29
2019-06-01 01:00:00 19.1 2 Noroeste 13 Sudeste 0 938.1 0.4 32
2019-06-01 00:00:00 19.4 3 Norte 5 Norte 0 938.3 0.7 30
2019-05-31 23:00:00 21.3 4 Nordeste 14 Este 0 938.1 0.4 32
2019-05-31 22:00:00 25 0 Calma 5 Este 0 937.7 -0.3 20
2019-05-31 21:00:00 29.8 3 Sudeste 12 Este 0 937.6 -0.7 12
2019-05-31 20:00:00 30.4 5 Este 14 Este 0 937.7 -1.1 9
2019-05-31 19:00:00 30.6 6 Nordeste 19 Nordeste 0 938 -1.3 10
2019-05-31 18:00:00 30.4 10 Este 26 Este 0 938.3 -1.7 11
2019-05-31 17:00:00 30.5 11 Este 25 Este 0 938.8 -1.8 12
2019-05-31 16:00:00 29.9 5 Nordeste 24 Nordeste 0 939.3 -1.7 13
2019-05-31 15:00:00 29.1 4 Este 20 Norte 0 940 -1.3 14
2019-05-31 14:00:00 28.5 7 Norte 18 Norte 0 940.6 -1 13
2019-05-31 13:00:00 26.5 4 Nordeste 15 Nordeste 0 941 -0.9 18
2019-05-31 12:00:00 24.8 6 Nordeste 17 Nordeste 0 941.3 -0.6 30
2019-05-31 11:00:00 22.7 7 Nordeste 17 Nordeste 0 941.6 -0.4 36
2019-05-31 10:00:00 20 8 Norte 18 Nordeste 0 941.9 0.3 44
2019-05-31 09:00:00 17.1 8 Norte 20 Nordeste 0 941.9 0.4 53
2019-05-31 08:00:00 15.4 5 Nordeste 12 Norte 0 942 0.4 63
2019-05-31 07:00:00 13.7 6 Norte 17 Norte 0 941.6 -0.2 70
2019-05-31 06:00:00 14.8 9 Norte 17 Norte 0 941.5 -0.4 67
2019-05-31 05:00:00 15.7 7 Norte 12 Norte 0 941.6 -0.4 63
2019-05-31 04:00:00 16.9 7 Norte 21 Nordeste 0 941.8 -0.3 59
2019-05-31 03:00:00 18.2 8 Nordeste 18 Este 0 941.9 0 56
2019-05-31 02:00:00 18.7 8 Nordeste 22 Nordeste 0 942 0.7 55
2019-05-31 01:00:00 18.8 5 Norte 16 Este 0 942.1 1.6 47
2019-05-31 00:00:00 20 6 Este 15 Este 0 941.9 1.8 39
2019-05-30 23:00:00 21.7 3 Este 10 Este 0 941.3 1.3 33
2019-05-30 22:00:00 25 4 Sudeste 14 Este 0 940.5 0.1 25
2019-05-30 21:00:00 27.4 6 Este 20 Este 0 940.1 -0.7 21
2019-05-30 20:00:00 28.8 10 Este 21 Este 0 940 -1.3 18
2019-05-30 19:00:00 29.3 7 Nordeste 20 Nordeste 0 940.4 -1.3 18
2019-05-30 18:00:00 29.4 8 Nordeste 21 Norte 0 940.8 -1.5 18
2019-05-30 17:00:00 28.9 5 Nordeste 24 Nordeste 0 941.3 -1.5 18
2019-05-30 16:00:00 27.7 6 Norte 21 Nordeste 0 941.7 -1.6 20
2019-05-30 15:00:00 26.4 7 Sudeste 19 Este 0 942.3 -1.2 20
2019-05-30 14:00:00 24.7 7 Este 22 Este 0 942.8 -1.1 25
2019-05-30 13:00:00 23.1 5 Sudeste 16 Este 0 943.3 -0.7 32
2019-05-30 12:00:00 20.9 6 Este 17 Este 0 943.5 -0.4 39
2019-05-30 11:00:00 19.4 5 Este 16 Norte 0 943.9 0 45
2019-05-30 10:00:00 16.6 5 Nordeste 16 Nordeste 0 944 0.2 54
2019-05-30 09:00:00 14.6 8 Norte 15 Norte 0 943.9 0.4 62
2019-05-30 08:00:00 12.1 5 Nordeste 12 Oeste 0 943.9 0.7 70
2019-05-30 07:00:00 9.7 3 Norte 6 Norte 0 943.8 0.5 78
2019-05-30 06:00:00 10 3 Norte 6 Norte 0 943.5 0.3 74
2019-05-30 05:00:00 11.1 4 Norte 8 Norte 0 943.2 -0.3 71
2019-05-30 04:00:00 11.6 3 Norte 5 Norte 0 943.3 -0.4 69
2019-05-30 03:00:00 12.2 3 Norte 7 Nordeste 0 943.2 0 64
2019-05-30 02:00:00 14 2 Este 12 Nordeste 0 943.5 1 57
2019-05-30 01:00:00 15.2 5 Nordeste 17 Este 0 943.7 2.2 52
2019-05-30 00:00:00 16.5 8 Este 24 Nordeste 0 943.2 2.5 46
2019-05-29 23:00:00 18.1 9 Este 27 Este 0 942.5 2 43
2019-05-29 22:00:00 20.2 10 Este 31 Sudeste 0 941.5 0.9 39
2019-05-29 21:00:00 23.6 5 Este 14 Este 0 940.7 -0.1 27
2019-05-29 20:00:00 24.8 5 Este 19 Este 0 940.5 -0.7 25
2019-05-29 19:00:00 24.8 8 Este 21 Nordeste 0 940.6 -0.9 24
2019-05-29 18:00:00 24.4 7 Este 36 Nordeste 0 940.8 -1.1 25
2019-05-29 17:00:00 24 9 Sudeste 22 Este 0 941.2 -1 25
2019-05-29 16:00:00 23 9 Este 19 Nordeste 0 941.5 -1 27
2019-05-29 15:00:00 21.8 6 Nordeste 24 Nordeste 0 941.9 -0.8 29
2019-05-29 14:00:00 20.1 5 Norte 21 Este 0 942.2 -0.7 32
2019-05-29 13:00:00 18.4 8 Sudeste 19 Este 0 942.5 -0.6 36
2019-05-29 12:00:00 16.2 6 Nordeste 17 Este 0 942.7 0 42
2019-05-29 11:00:00 14.8 4 Sur 15 Sudeste 0 942.9 0.6 46
2019-05-29 10:00:00 13.2 4 Este 12 Este 0 943.1 1.2 52
2019-05-29 09:00:00 11.5 5 Sudeste 15 Este 0 942.7 1 60
2019-05-29 08:00:00 10 2 Nordeste 5 Nordeste 0 942.3 0.8 65
2019-05-29 07:00:00 6.9 0 Calma 5 Noroeste 0 941.9 0.5 76
2019-05-29 06:00:00 7.3 0 Calma 5 Sudeste 0 941.7 0.2 74
2019-05-29 05:00:00 7.9 0 Calma 4 Este 0 941.5 0.2 72
2019-05-29 04:00:00 8.9 0 Calma 6 Nordeste 0 941.4 0.3 69
2019-05-29 03:00:00 9.3 4 Nordeste 8 Este 0 941.5 1 67
2019-05-29 02:00:00 10 3 Nordeste 12 Este 0 941.3 1.5 63
2019-05-29 01:00:00 11.3 6 Este 17 Este 0 941.1 2.5 56
2019-05-29 00:00:00 12.6 6 Nordeste 22 Nordeste 0 940.5 2.8 51
2019-05-28 23:00:00 14.6 14 Nordeste 35 Nordeste 0 939.8 3 44
2019-05-28 22:00:00 16.2 21 Nordeste 39 Nordeste 0 938.6 2.2 40
2019-05-28 21:00:00 18.7 17 Norte 44 Nordeste 0 937.7 1.3 31
2019-05-28 20:00:00 20.3 21 Norte 48 Nordeste 0 936.8 0.6 29
2019-05-28 19:00:00 21.4 24 Norte 48 Nordeste 0 936.4 0 26
2019-05-28 18:00:00 22.2 24 Nordeste 43 Nordeste 0 936.4 -0.3 24
2019-05-28 17:00:00 23.4 18 Nordeste 34 Nordeste 0 936.2 -0.9 20
2019-05-28 16:00:00 22.7 17 Norte 34 Nordeste 0 936.4 -1 21
2019-05-28 15:00:00 21.1 6 Noroeste 23 Nordeste 0 936.7 -0.7 23
2019-05-28 14:00:00 19.6 8 Nordeste 25 Nordeste 0 937.1 -0.4 26
2019-05-28 13:00:00 17.5 8 Nordeste 23 Nordeste 0 937.4 -0.1 32
2019-05-28 12:00:00 16.6 7 Nordeste 22 Nordeste 0 937.4 -0.1 33
2019-05-28 11:00:00 14.5 8 Nordeste 22 Nordeste 0 937.5 0.6 45
2019-05-28 10:00:00 12.8 6 Nordeste 16 Este 0 937.5 1.2 56
2019-05-28 09:00:00 10.9 9 Nordeste 17 Nordeste 0 937.5 1.6 67
2019-05-28 08:00:00 9.1 3 Norte 12 Nordeste 0 936.9 1.3 74
2019-05-28 07:00:00 7.5 5 Norte 11 Nordeste 0 936.3 0.7 79
2019-05-28 06:00:00 7.9 4 Nordeste 9 Nordeste 0 935.9 0.4 79
2019-05-28 05:00:00 8.8 3 Este 12 Nordeste 0 935.6 0.1 78
2019-05-28 04:00:00 9.3 5 Este 9 Este 0 935.6 0.2 79
2019-05-28 03:00:00 10.1 4 Nordeste 13 Este 0 935.5 0.3 78
2019-05-28 02:00:00 11 6 Este 16 Nordeste 0 935.5 1.1 74
2019-05-28 01:00:00 12.4 8 Nordeste 26 Nordeste 0 935.4 2.1 52
2019-05-28 00:00:00 14.2 14 Nordeste 33 Nordeste 0 935.2 2.5 44
2019-05-27 23:00:00 15.8 14 Nordeste 33 Nordeste 0 934.4 2.4 46
2019-05-27 22:00:00 17.5 15 Norte 44 Norte 0 933.3 1.4 41
2019-05-27 21:00:00 20.3 18 Norte 41 Nordeste 0 932.7 0.9 35
2019-05-27 20:00:00 23.4 17 Norte 35 Nordeste 0 932 -0.1 31
2019-05-27 19:00:00 24.3 18 Nordeste 35 Nordeste 0 931.9 -0.6 29
2019-05-27 18:00:00 24.8 11 Nordeste 30 Nordeste 0 931.8 -1.1 27
2019-05-27 17:00:00 25.4 10 Norte 29 Norte 0 932.1 -1.8 27
2019-05-27 16:00:00 24.8 8 Este 23 Nordeste 0 932.5 -1.8 29
2019-05-27 15:00:00 23.9 6 Nordeste 21 Norte 0 932.9 -1.6 30
2019-05-27 14:00:00 23.7 8 Norte 35 Nordeste 0 933.9 -- 30
2019-05-27 13:00:00 22 7 Nordeste 22 Este 0 934.3 -0.9 36
2019-05-27 12:00:00 20.6 5 Este -- -- -- 934.5 -0.8 41
2019-05-27 11:00:00 -- -- -- -- -- -- -- -- --
2019-05-27 10:00:00 16.3 4 Este 10 Este 0 935.2 -0.2 54
2019-05-27 09:00:00 13.8 6 Este 12 Este 0 935.3 -0.1 65
2019-05-27 08:00:00 12.1 0 Calma 4 Nordeste 0 935.3 0.2 71
2019-05-27 07:00:00 10 3 Nordeste 6 Nordeste 0 935.4 -0.1 77
2019-05-27 06:00:00 10.6 0 Calma 7 Nordeste 0 935.4 -0.2 75
2019-05-27 05:00:00 11.7 3 Este 9 Este 0 935.1 -0.9 73
2019-05-27 04:00:00 12.8 4 Nordeste 11 Nordeste 0 935.5 -1 68
2019-05-27 03:00:00 13.6 4 Este 12 Este 0 935.6 -1.1 63
2019-05-27 02:00:00 14.7 5 Nordeste 11 Nordeste 0 936 -0.2 57
2019-05-27 01:00:00 16 4 Nordeste 15 Nordeste 0 936.5 1.1 52
2019-05-27 00:00:00 17.7 6 Nordeste 25 Nordeste 0 936.7 2.1 47
2019-05-26 23:00:00 19.7 9 Nordeste 28 Este 0 936.2 1.8 44
2019-05-26 22:00:00 22.5 12 Nordeste 28 Norte 0 935.4 0.8 34
2019-05-26 21:00:00 25.2 13 Norte 30 Nordeste 0 934.6 -0.5 27
2019-05-26 20:00:00 27.6 13 Norte 28 Norte 0 934.4 -1.2 20
2019-05-26 19:00:00 28 10 Nordeste 34 Norte 0 934.6 -1.8 20
2019-05-26 18:00:00 28 6 Nordeste 35 Nordeste 0 935.1 -2 22
2019-05-26 17:00:00 27.2 11 Nordeste 32 Nordeste 0 935.6 -2.4 24
2019-05-26 16:00:00 25.4 8 Sudeste 22 Nordeste 0 936.4 -2.4 27
2019-05-26 15:00:00 24 8 Este 17 Nordeste 0 937.1 -2.2 29
2019-05-26 14:00:00 21.8 4 Oeste 17 Sur 0 938 -1.8 34
2019-05-26 13:00:00 19 5 Este 14 Sudeste 0 938.8 -1.3 42
2019-05-26 12:00:00 -- -- -- -- -- -- -- -- --
2019-05-26 11:00:00 -- -- -- -- -- -- -- -- --
2019-05-26 10:00:00 -- -- -- -- -- -- -- -- --
2019-05-26 09:00:00 -- -- -- -- -- -- -- -- --
2019-05-26 08:00:00 -- -- -- -- -- -- -- -- --
2019-05-26 07:00:00 -- -- -- -- -- -- -- -- --
2019-05-26 06:00:00 -- -- -- -- -- -- -- -- --
2019-05-26 05:00:00 -- -- -- -- -- -- -- -- --
2019-05-26 04:00:00 -- -- -- -- -- -- -- -- --
2019-05-26 03:00:00 -- -- -- -- -- -- -- -- --
2019-05-26 02:00:00 -- -- -- -- -- -- -- -- --
2019-05-26 01:00:00 -- -- -- -- -- -- -- -- --
2019-05-26 00:00:00 -- -- -- -- -- -- -- -- --